Aeroporto :
LOGIN :

Iscrizione | Disclaimer

   EN    FR    IT 

 










Sommario :    VFR   VFR Marginale   IFR   IFR Intensivo   IFR Molto Intensivo
Visibilità : 
Base nubi : 
>= 8 km
>= 3000ft
5 / 8 km
1000 / 3000 ft
1500m / 5 km
500 / 1000 ft
800 / 1500m
200 / 500 ft
< 800m
< 200 ft
Simboli :   Temporali  Nebbia  Neve Forte  Precipitazioni Forti  Vento > 20 kt
SIGMETs :   Varie  Temporali  Ghiacco  Turbolenza  Onda orograficha  Ceneri Vulcaniche






- Altitudine del aeroporto : 15 ft
- Codice IATA : BHD


EGAC - George Best Belfast City

ULTIMO METAR :
  • 221550Z AUTO 24018G31KT 9999 NCD 06/01 Q1010

METARs OBSOLETI :
  • 221520Z AUTO 24017G28KT 9999 NCD 06/01 Q1010
  • 221450Z AUTO 25017KT 9999 FEW023/// SCT030/// 06/01 Q1010
  • 221420Z AUTO 25019G31KT 9999 -RA SCT028/// SCT037/// BKN047/// 05/02 Q1010
  • 221350Z 26023G36KT 9999 5000NE FEW015 SCT022CB 04/01 Q1010

TAF TAF EGAC
Valido dal 22 a 15 ore il 22 a 22 ore UTC


221409Z 2215/2222 25015G25KT 9999 SCT020CB
TEMPO 2215/2218 26022G35KT 6000 SHRASN BKN014CB
PROB30
TEMPO 2218/2222 8000 -SHRASN
ATIS : +44 02890 935 124



MetMap, La meteo Aeronautica in un colpo d'occhio ! - Copyright ORBIFLY Dicembre 2007 - Disclaimer

ORBIFLY MET'MAP TEAM :

Programmazione e sviluppo : Alexandra Zaïnal
Concezione : Baudouin d'Aumeries
Aiuto per la programmazione : Marc-Olivier Méhu
Supporto tecnico e logistico : Manuel Goepfert
Aiuto per la traduzione : Arnaldo La Scala

Contatto : metmap@orbifly.com




FONTI E CREDITI :

   NOAA